Climatologie pour Saint-Brevin les Pins
Jour • Résumé pour mars 12, 2017 Système :  Métrique    Anglais   Mixte
« - 1 jour
+ 1 jour »
Jour Semaine Mois Année Personnalisé
  Maximum : Minimum : Moyenne :
Température sous abri : -17.8 °C -13.4 °C -12.2 °C
Point de rosée : -17.8 °C -13.9 °C -12.5 °C
Humidité : Humidity % 93 % 96 %
Vitesse du vent : 0 km/h 0 km/h 8.7 km/h
Rafale : 0 km/h - -
Direction :- - WNW
Pression : 0 hPa 34303.6 hPa -
Précipitations : 180.34 mm    
Historical Graphs
 
 
Tableau de données pour mars 12, 2017
Heure Tempé Pt rosée Pression Vent Vitesse Rafale Humidité Taux pluie (/hr) Soleil
-17.8 °C -17.8 °C 0 hPa Calm     Humidity % 0 mm SolarRadiationWatts/m^2 W/m2 Conditions
00:00 -12.3 °C -12.7 °C 34361.1 hPa Calm     95 % 0 mm 0 W/m2
00:15 -12.6 °C -13 °C 34361.1 hPa Calm   2.6 km/h 95 % 0 mm 0 W/m2
00:20 -12.6 °C -12.9 °C 34361.1 hPa NNE 5.1 km/h 7.7 km/h 96 % 0 mm 0 W/m2
00:25 -12.6 °C -13.1 °C 34361.1 hPa Calm   7.7 km/h 95 % 0 mm 0 W/m2
00:30 -12.6 °C -12.9 °C 34361.1 hPa Calm   7.7 km/h 96 % 0 mm 0 W/m2
00:35 -12.4 °C -12.8 °C 34361.1 hPa Calm   7.7 km/h 96 % 0 mm 0 W/m2
00:40 -12.4 °C -12.8 °C 34361.1 hPa Calm   2.6 km/h 96 % 0 mm 0 W/m2
00:45 -12.6 °C -12.9 °C 34361.1 hPa Calm     96 % 0 mm 0 W/m2
00:50 -12.7 °C -13 °C 34361.1 hPa Calm   2.6 km/h 96 % 0 mm 0 W/m2
00:55 -12.7 °C -13.1 °C 34361.1 hPa Calm   2.6 km/h 96 % 0 mm 0 W/m2
01:00 -12.7 °C -13 °C 34371.3 hPa WNW 7.7 km/h 10.3 km/h 96 % 0 mm 0 W/m2
01:10 -12.3 °C -12.6 °C 34384.8 hPa West 12.9 km/h 18.2 km/h 97 % 0 mm 0 W/m2
01:15 -12.2 °C -12.4 °C 34371.3 hPa West 10.3 km/h 18.2 km/h 97 % 0 mm 0 W/m2
01:20 -12.1 °C -12.4 °C 34371.3 hPa Calm   12.9 km/h 96 % 0 mm 0 W/m2
01:25 -12.1 °C -12.4 °C 34371.3 hPa SSW 5.1 km/h 12.9 km/h 96 % 0 mm 0 W/m2
01:30 -12.1 °C -12.4 °C 34371.3 hPa SW 5.1 km/h 10.3 km/h 96 % 0 mm 0 W/m2
01:35 -12.1 °C -12.4 °C 34371.3 hPa SSW 5.1 km/h 12.9 km/h 96 % 0 mm 0 W/m2
01:40 -12.1 °C -12.5 °C 34371.3 hPa SSW 5.1 km/h 23.3 km/h 95 % 0 mm 0 W/m2
01:45 -12.1 °C -12.5 °C 34371.3 hPa WSW 10.3 km/h 23.3 km/h 95 % 0 mm 0 W/m2
01:50 -12.1 °C -12.5 °C 34371.3 hPa WSW 10.3 km/h 18.2 km/h 95 % 0 mm 0 W/m2
01:55 -12.1 °C -12.6 °C 34361.1 hPa West 5.1 km/h 20.8 km/h 95 % 0 mm 0 W/m2
02:00 -12.1 °C -12.6 °C 34371.3 hPa West 12.9 km/h 20.8 km/h 95 % 0 mm 0 W/m2
02:05 -12.1 °C -12.4 °C 34371.3 hPa West 7.7 km/h 20.8 km/h 96 % 0 mm 0 W/m2
02:10 -12.1 °C -12.5 °C 34371.3 hPa WSW 18.2 km/h 28.5 km/h 95 % 0 mm 0 W/m2
02:15 -12.1 °C -12.4 °C 34361.1 hPa Calm   31.1 km/h 95 % 0 mm 0 W/m2
02:20 -12.1 °C -12.4 °C 34361.1 hPa Calm   31.1 km/h 95 % 0 mm 0 W/m2
02:25 -12 °C -12.3 °C 34361.1 hPa West 5.1 km/h 15.6 km/h 96 % 0 mm 0 W/m2
02:30 -12 °C -12.3 °C 34361.1 hPa WSW 10.3 km/h 15.6 km/h 96 % 0 mm 0 W/m2
02:35 -11.9 °C -12.3 °C 34361.1 hPa WSW 12.9 km/h 23.3 km/h 96 % 0 mm 0 W/m2
02:40 -11.9 °C -12.3 °C 34361.1 hPa West 10.3 km/h 23.3 km/h 95 % 0 mm 0 W/m2
02:45 -11.8 °C -12.3 °C 34361.1 hPa WNW 10.3 km/h 23.3 km/h 95 % 0 mm 0 W/m2
02:50 -11.9 °C -12.3 °C 34361.1 hPa West 12.9 km/h 20.8 km/h 95 % 0 mm 0 W/m2
02:55 -11.9 °C -12.3 °C 34347.6 hPa West 7.7 km/h 20.8 km/h 95 % 0 mm 0 W/m2
03:00 -11.9 °C -12.3 °C 34347.6 hPa NNW 5.1 km/h 20.8 km/h 95 % 0 mm 0 W/m2
03:05 -11.9 °C -12.3 °C 34347.6 hPa West 12.9 km/h 18.2 km/h 95 % 0 mm 0 W/m2
03:10 -11.9 °C -12.4 °C 34347.6 hPa WNW 10.3 km/h 25.9 km/h 95 % 0 mm 0 W/m2
03:15 -12 °C -12.4 °C 34347.6 hPa WNW 10.3 km/h 25.9 km/h 95 % 0 mm 0 W/m2
03:20 -12 °C -12.3 °C 34337.4 hPa Calm   18.2 km/h 96 % 0 mm 0 W/m2
03:25 -12 °C -12.4 °C 34337.4 hPa WNW 5.1 km/h 10.3 km/h 95 % 0 mm 0 W/m2
03:30 -12 °C -12.3 °C 34337.4 hPa WNW 5.1 km/h 10.3 km/h 96 % 0 mm 0 W/m2
03:35 -12.1 °C -12.4 °C 34327.3 hPa Calm   10.3 km/h 96 % 0 mm 0 W/m2
03:40 -12.1 °C -12.4 °C 34327.3 hPa Calm   7.7 km/h 96 % 0 mm 0 W/m2
03:45 -12.1 °C -12.4 °C 34313.7 hPa Calm   7.7 km/h 96 % 0 mm 0 W/m2
03:50 -12.1 °C -12.4 °C 34327.3 hPa Calm   5.1 km/h 96 % 0 mm 0 W/m2
03:55 -12.2 °C -12.6 °C 34313.7 hPa NW 2.6 km/h 10.3 km/h 96 % 0 mm 0 W/m2
04:00 -12.1 °C -12.4 °C 34313.7 hPa WNW 10.3 km/h 15.6 km/h 96 % 0 mm 0 W/m2
04:05 -12.1 °C -12.3 °C 34313.7 hPa WNW 5.1 km/h 18.2 km/h 97 % 0 mm 0 W/m2
04:10 -12 °C -12.3 °C 34313.7 hPa WNW 7.7 km/h 18.2 km/h 96 % 0 mm 0 W/m2
04:20 -11.9 °C -12.3 °C 34313.7 hPa WNW 10.3 km/h 15.6 km/h 96 % 0 mm 0 W/m2
04:25 -11.9 °C -12.2 °C 34313.7 hPa NW 15.6 km/h 18.2 km/h 96 % 0 mm 0 W/m2
04:30 -11.8 °C -12.2 °C 34313.7 hPa WNW 23.3 km/h 25.9 km/h 96 % 0 mm 0 W/m2
04:35 -11.8 °C -12.2 °C 34313.7 hPa NW 10.3 km/h 25.9 km/h 96 % 0 mm 0 W/m2
04:40 -11.8 °C -12.1 °C 34313.7 hPa WNW 7.7 km/h 28.5 km/h 96 % 0 mm 0 W/m2
04:45 -11.8 °C -12.2 °C 34313.7 hPa NNW 2.6 km/h 28.5 km/h 96 % 0 mm 0 W/m2
04:50 -11.9 °C -12.2 °C 34313.7 hPa Calm   18.2 km/h 96 % 0 mm 0 W/m2
04:55 -12 °C -12.3 °C 34303.6 hPa Calm   15.6 km/h 96 % 0 mm 0 W/m2
05:00 -12 °C -12.3 °C 34313.7 hPa Calm   15.6 km/h 96 % 0 mm 0 W/m2
05:10 -12 °C -12.3 °C 34303.6 hPa Calm   7.7 km/h 96 % 0 mm 0 W/m2
05:15 -12 °C -12.3 °C 34303.6 hPa NW 10.3 km/h 10.3 km/h 96 % 0 mm 0 W/m2
05:20 -12 °C -12.3 °C 34303.6 hPa NW 2.6 km/h 10.3 km/h 96 % 0 mm 0 W/m2
05:25 -12 °C -12.3 °C 34303.6 hPa NW 5.1 km/h 10.3 km/h 96 % 0 mm 0 W/m2
05:30 -12.1 °C -12.4 °C 34303.6 hPa Calm   5.1 km/h 96 % 0 mm 0 W/m2
05:35 -12.1 °C -12.3 °C 34303.6 hPa Calm   5.1 km/h 97 % 0 mm 0 W/m2
05:40 -12 °C -12.3 °C 34303.6 hPa Calm   2.6 km/h 97 % 0 mm 0 W/m2
05:45 -12.1 °C -12.3 °C 34303.6 hPa Calm   2.6 km/h 97 % 0 mm 0 W/m2
05:50 -12.1 °C -12.4 °C 34303.6 hPa Calm   5.1 km/h 96 % 0 mm 0 W/m2
05:55 -12.1 °C -12.4 °C 34303.6 hPa Calm   5.1 km/h 97 % 0 mm 0 W/m2
06:00 -12.2 °C -12.5 °C 34303.6 hPa Calm   2.6 km/h 97 % 0 mm 0 W/m2
06:05 -12.1 °C -12.4 °C 34303.6 hPa NW 5.1 km/h 5.1 km/h 97 % 0 mm 0 W/m2
06:10 -12.1 °C -12.3 °C 34303.6 hPa SSW 5.1 km/h 10.3 km/h 97 % 0 mm 0 W/m2
06:15 -12 °C -12.2 °C 34303.6 hPa Calm   10.3 km/h 97 % 0 mm 0 W/m2
06:20 -12 °C -12.3 °C 34313.7 hPa SSW 5.1 km/h 15.6 km/h 97 % 0 mm 0 W/m2
06:25 -12.1 °C -12.3 °C 34313.7 hPa SSW 5.1 km/h 15.6 km/h 97 % 0 mm 0 W/m2
06:30 -12.1 °C -12.3 °C 34313.7 hPa SSW 2.6 km/h 7.7 km/h 97 % 0 mm 0 W/m2
06:35 -12.1 °C -12.3 °C 34303.6 hPa Calm   10.3 km/h 97 % 0 mm 0 W/m2
06:40 -12.1 °C -12.3 °C 34303.6 hPa Calm   10.3 km/h 97 % 0 mm 0 W/m2
06:45 -12.2 °C -12.4 °C 34303.6 hPa Calm   2.6 km/h 97 % 0 mm 0 W/m2
06:50 -12.1 °C -12.4 °C 34313.7 hPa WNW 5.1 km/h 15.6 km/h 97 % 0 mm 0 W/m2
06:55 -12.1 °C -12.3 °C 34313.7 hPa SW 2.6 km/h 15.6 km/h 97 % 0 mm 0 W/m2
07:00 -12.1 °C -12.3 °C 34313.7 hPa WNW 5.1 km/h 15.6 km/h 97 % 0 mm 0 W/m2
07:05 -12.1 °C -12.3 °C 34313.7 hPa WNW 12.9 km/h 18.2 km/h 97 % 0 mm 0 W/m2
07:10 -12.1 °C -12.3 °C 34327.3 hPa WSW 7.7 km/h 18.2 km/h 97 % 0 mm 0 W/m2
07:15 -12.1 °C -12.3 °C 34327.3 hPa WNW 15.6 km/h 23.3 km/h 97 % 0 mm 0 W/m2
07:20 -12.1 °C -12.3 °C 34327.3 hPa WNW 18.2 km/h 23.3 km/h 97 % 0 mm 0 W/m2
07:25 -12.1 °C -12.2 °C 34327.3 hPa WNW 12.9 km/h 23.3 km/h 98 % 0 mm 0 W/m2
07:30 -12.1 °C -12.2 °C 34327.3 hPa West 7.7 km/h 23.3 km/h 98 % 0 mm 0 W/m2
07:35 -12.1 °C -12.2 °C 34327.3 hPa WNW 20.8 km/h 25.9 km/h 98 % 0 mm 0 W/m2
07:40 -12.1 °C -12.2 °C 34327.3 hPa WNW 10.3 km/h 25.9 km/h 98 % 0 mm 0 W/m2
07:45 -12.1 °C -12.2 °C 34327.3 hPa NW 18.2 km/h 20.8 km/h 98 % 0 mm 0 W/m2
07:50 -12 °C -12.2 °C 34327.3 hPa WNW 7.7 km/h 20.8 km/h 98 % 0 mm 0 W/m2
07:55 -12 °C -12.2 °C 34327.3 hPa WNW 2.6 km/h 23.3 km/h 98 % 0 mm 0 W/m2
08:00 -12 °C -12.2 °C 34327.3 hPa NW 7.7 km/h 23.3 km/h 98 % 0 mm 0 W/m2
08:05 -12 °C -12.2 °C 34327.3 hPa WNW 15.6 km/h 20.8 km/h 98 % 0 mm 5 W/m2
08:10 -12 °C -12.2 °C 34327.3 hPa WNW 5.1 km/h 18.2 km/h 98 % 0 mm 5 W/m2
08:15 -12 °C -12.2 °C 34327.3 hPa NW 7.7 km/h 18.2 km/h 98 % 0 mm 5 W/m2
08:20 -12 °C -12.2 °C 34327.3 hPa NW 15.6 km/h 20.8 km/h 98 % 0 mm 7 W/m2
08:25 -12 °C -12.2 °C 34327.3 hPa NW 12.9 km/h 20.8 km/h 98 % 0 mm 9 W/m2
08:30 -11.9 °C -12.1 °C 34327.3 hPa NW 2.6 km/h 20.8 km/h 98 % 0 mm 9 W/m2
08:35 -11.9 °C -12.1 °C 34327.3 hPa NW 10.3 km/h 12.9 km/h 98 % 0 mm 11 W/m2
08:40 -11.9 °C -12.1 °C 34327.3 hPa WNW 12.9 km/h 18.2 km/h 98 % 0 mm 9 W/m2
08:45 -11.9 °C -12.2 °C 34337.4 hPa NW 12.9 km/h 20.8 km/h 97 % 0 mm 11 W/m2
08:50 -11.9 °C -12.1 °C 34337.4 hPa NNW 10.3 km/h 20.8 km/h 98 % 0 mm 11 W/m2
08:55 -11.9 °C -12.1 °C 34327.3 hPa NNW 2.6 km/h 20.8 km/h 98 % 0 mm 12 W/m2
09:00 -11.9 °C -12.1 °C 34337.4 hPa NW 5.1 km/h 20.8 km/h 98 % 0 mm 14 W/m2
09:05 -11.8 °C -12 °C 34337.4 hPa NNW 5.1 km/h 15.6 km/h 98 % 0 mm 14 W/m2
09:10 -11.8 °C -12.1 °C 34337.4 hPa NW 2.6 km/h 18.2 km/h 97 % 0 mm 14 W/m2
09:15 -11.8 °C -12.1 °C 34337.4 hPa North 5.1 km/h 18.2 km/h 97 % 0 mm 19 W/m2
09:20 -11.8 °C -12.1 °C 34337.4 hPa Calm   15.6 km/h 97 % 0 mm 25 W/m2
09:25 -11.8 °C -12.1 °C 34337.4 hPa North 12.9 km/h 15.6 km/h 97 % 0 mm 30 W/m2
09:30 -11.8 °C -12 °C 34337.4 hPa Calm   20.8 km/h 97 % 0 mm 33 W/m2
09:35 -11.8 °C -12 °C 34337.4 hPa NNW 5.1 km/h 20.8 km/h 97 % 0 mm 33 W/m2
09:40 -11.8 °C -12 °C 34337.4 hPa NNW 2.6 km/h 20.8 km/h 97 % 0 mm 30 W/m2
09:45 -11.7 °C -12 °C 34337.4 hPa Calm   20.8 km/h 97 % 0 mm 39 W/m2
09:50 -11.7 °C -11.9 °C 34337.4 hPa NW 7.7 km/h 23.3 km/h 97 % 0 mm 28 W/m2
09:55 -11.7 °C -11.9 °C 34347.6 hPa WNW 7.7 km/h 23.3 km/h 97 % 0 mm 33 W/m2
10:00 -11.7 °C -11.9 °C 34347.6 hPa West 12.9 km/h 20.8 km/h 97 % 0 mm 33 W/m2
10:05 -11.7 °C -11.9 °C 34347.6 hPa WNW 15.6 km/h 23.3 km/h 97 % 0 mm 39 W/m2
10:10 -11.6 °C -11.9 °C 34347.6 hPa NNW 20.8 km/h 23.3 km/h 97 % 0 mm 42 W/m2
10:15 -11.6 °C -11.8 °C 34347.6 hPa NW 7.7 km/h 20.8 km/h 97 % 0 mm 42 W/m2
10:20 -11.6 °C -11.8 °C 34347.6 hPa North 20.8 km/h 20.8 km/h 97 % 0 mm 47 W/m2
10:25 -11.6 °C -11.8 °C 34347.6 hPa NW 2.6 km/h 20.8 km/h 97 % 0 mm 35 W/m2
10:30 -11.6 °C -11.8 °C 34361.1 hPa North 5.1 km/h 23.3 km/h 97 % 0 mm 33 W/m2
10:35 -11.6 °C -11.8 °C 34361.1 hPa NNW 20.8 km/h 25.9 km/h 97 % 0 mm 30 W/m2
10:40 -11.6 °C -11.8 °C 34361.1 hPa North 5.1 km/h 25.9 km/h 97 % 0 mm 33 W/m2
10:45 -11.6 °C -11.8 °C 34361.1 hPa NNW 12.9 km/h 25.9 km/h 97 % 0 mm 42 W/m2
10:50 -11.5 °C -11.8 °C 34361.1 hPa NNW 5.1 km/h 23.3 km/h 97 % 0 mm 42 W/m2
10:55 -11.5 °C -11.7 °C 34361.1 hPa NNW 7.7 km/h 20.8 km/h 97 % 0 mm 53 W/m2
11:00 -11.4 °C -11.7 °C 34361.1 hPa North 7.7 km/h 20.8 km/h 97 % 0 mm 63 W/m2
11:05 -11.4 °C -11.7 °C 34361.1 hPa NNW 10.3 km/h 23.3 km/h 97 % 0 mm 70 W/m2
11:10 -11.4 °C -11.7 °C 34361.1 hPa NNW 10.3 km/h 23.3 km/h 97 % 0 mm 113 W/m2
11:15 -11.3 °C -11.6 °C 34361.1 hPa North 2.6 km/h 25.9 km/h 97 % 0 mm 69 W/m2
11:20 -11.3 °C -11.6 °C 34361.1 hPa North 2.6 km/h 25.9 km/h 97 % 0 mm 102 W/m2
11:25 -11.3 °C -11.5 °C 34371.3 hPa NW 5.1 km/h 23.3 km/h 97 % 0 mm 88 W/m2
11:30 -11.2 °C -11.5 °C 34371.3 hPa WNW 7.7 km/h 18.2 km/h 97 % 0 mm 51 W/m2
11:35 -11.3 °C -11.5 °C 34371.3 hPa NNW 5.1 km/h 20.8 km/h 97 % 0 mm 60 W/m2
11:40 -11.3 °C -11.7 °C 34371.3 hPa NNW 10.3 km/h 20.8 km/h 96 % 0 mm 51 W/m2
11:45 -11.3 °C -11.6 °C 34371.3 hPa NW 2.6 km/h 18.2 km/h 97 % 0 mm 54 W/m2
11:50 -11.4 °C -11.7 °C 34371.3 hPa NNW 5.1 km/h 23.3 km/h 97 % 0 mm 35 W/m2
11:55 -11.4 °C -11.7 °C 34371.3 hPa North 2.6 km/h 23.3 km/h 97 % 7.62 mm 18 W/m2
12:00 -11.5 °C -11.8 °C 34371.3 hPa WNW 7.7 km/h 23.3 km/h 97 % 7.62 mm 23 W/m2
12:05 -11.6 °C -11.8 °C 34371.3 hPa North 7.7 km/h 18.2 km/h 97 % 7.62 mm 19 W/m2
12:10 -11.6 °C -11.8 °C 34384.8 hPa North 5.1 km/h 18.2 km/h 97 % 7.62 mm 26 W/m2
12:15 -11.6 °C -11.8 °C 34384.8 hPa NNW 7.7 km/h 20.8 km/h 97 % 7.62 mm 26 W/m2
12:20 -11.6 °C -11.8 °C 34384.8 hPa NW 12.9 km/h 20.8 km/h 97 % 7.62 mm 30 W/m2
12:25 -11.6 °C -11.9 °C 34384.8 hPa NNW 12.9 km/h 23.3 km/h 97 % 7.62 mm 35 W/m2
12:30 -11.6 °C -11.9 °C 34384.8 hPa NW 5.1 km/h 31.1 km/h 97 % 7.62 mm 40 W/m2
12:40 -11.6 °C -11.9 °C 34384.8 hPa NNW 7.7 km/h 23.3 km/h 97 % 12.7 mm 53 W/m2
12:45 -11.6 °C -11.8 °C 34384.8 hPa NNW 10.3 km/h 18.2 km/h 97 % 12.7 mm 54 W/m2
12:50 -11.6 °C -11.8 °C 34395 hPa WNW 7.7 km/h 18.2 km/h 97 % 12.7 mm 62 W/m2
12:55 -11.6 °C -11.9 °C 34395 hPa NW 7.7 km/h 18.2 km/h 97 % 7.62 mm 30 W/m2
13:00 -11.7 °C -11.9 °C 34395 hPa NW 15.6 km/h 18.2 km/h 97 % 12.7 mm 54 W/m2
13:05 -11.7 °C -11.9 °C 34395 hPa NW 7.7 km/h 20.8 km/h 97 % 12.7 mm 74 W/m2
13:10 -11.7 °C -12 °C 34395 hPa NW 15.6 km/h 23.3 km/h 97 % 12.7 mm 70 W/m2
13:15 -11.8 °C -12.1 °C 34395 hPa NW 12.9 km/h 25.9 km/h 97 % 12.7 mm 63 W/m2
13:20 -11.8 °C -12.1 °C 34395 hPa North 18.2 km/h 25.9 km/h 97 % 20.32 mm 65 W/m2
13:25 -11.9 °C -12.2 °C 34395 hPa NW 15.6 km/h 28.5 km/h 97 % 25.4 mm 54 W/m2
13:35 -12.1 °C -12.3 °C 34395 hPa NNW 10.3 km/h 25.9 km/h 97 % 33.02 mm 62 W/m2
13:40 -12.1 °C -12.3 °C 34395 hPa NW 7.7 km/h 23.3 km/h 97 % 33.02 mm 72 W/m2
13:50 -12.2 °C -12.4 °C 34395 hPa NW 5.1 km/h 25.9 km/h 97 % 38.1 mm 67 W/m2
13:55 -12.2 °C -12.4 °C 34395 hPa NW 2.6 km/h 25.9 km/h 97 % 38.1 mm 58 W/m2
14:00 -12.2 °C -12.4 °C 34395 hPa NW 5.1 km/h 25.9 km/h 97 % 38.1 mm 65 W/m2
14:05 -12.2 °C -12.4 °C 34395 hPa NNW 10.3 km/h 23.3 km/h 97 % 38.1 mm 62 W/m2
14:10 -12.2 °C -12.4 °C 34405.1 hPa WNW 2.6 km/h 23.3 km/h 97 % 38.1 mm 63 W/m2
14:15 -12.1 °C -12.3 °C 34405.1 hPa North 2.6 km/h 23.3 km/h 98 % 38.1 mm 65 W/m2
14:20 -12.1 °C -12.3 °C 34405.1 hPa NNW 5.1 km/h 23.3 km/h 98 % 45.72 mm 63 W/m2
14:25 -12.1 °C -12.2 °C 34405.1 hPa NNW 5.1 km/h 23.3 km/h 98 % 38.1 mm 60 W/m2
14:30 -12.1 °C -12.3 °C 34405.1 hPa NW 12.9 km/h 23.3 km/h 98 % 45.72 mm 51 W/m2
14:35 -12.1 °C -12.4 °C 34405.1 hPa NNW 10.3 km/h 23.3 km/h 97 % 45.72 mm 53 W/m2
14:40 -12.1 °C -12.3 °C 34405.1 hPa NNW 12.9 km/h 23.3 km/h 98 % 45.72 mm 53 W/m2
14:45 -12.1 °C -12.4 °C 34405.1 hPa NW 7.7 km/h 23.3 km/h 97 % 50.8 mm 49 W/m2
14:50 -12.1 °C -12.4 °C 34405.1 hPa NW 12.9 km/h 23.3 km/h 97 % 45.72 mm 58 W/m2
14:55 -12.1 °C -12.3 °C 34418.7 hPa NNW 10.3 km/h 23.3 km/h 98 % 50.8 mm 63 W/m2
15:00 -12.1 °C -12.3 °C 34418.7 hPa NW 5.1 km/h 18.2 km/h 98 % 50.8 mm 65 W/m2
15:05 -12.1 °C -12.3 °C 34418.7 hPa NW 12.9 km/h 20.8 km/h 98 % 50.8 mm 67 W/m2
15:10 -12.1 °C -12.2 °C 34418.7 hPa NW 12.9 km/h 20.8 km/h 98 % 50.8 mm 69 W/m2
15:15 -12.1 °C -12.2 °C 34418.7 hPa Calm   20.8 km/h 98 % 45.72 mm 70 W/m2
15:20 -12.1 °C -12.2 °C 34418.7 hPa NNW 7.7 km/h 23.3 km/h 98 % 45.72 mm 70 W/m2
15:25 -12.1 °C -12.2 °C 34418.7 hPa North 10.3 km/h 23.3 km/h 98 % 50.8 mm 72 W/m2
15:30 -12 °C -12.2 °C 34418.7 hPa WNW 5.1 km/h 20.8 km/h 98 % 45.72 mm 76 W/m2
15:35 -12 °C -12.2 °C 34418.7 hPa Calm   20.8 km/h 98 % 38.1 mm 76 W/m2
15:40 -12 °C -12.2 °C 34428.8 hPa NW 7.7 km/h 20.8 km/h 98 % 38.1 mm 72 W/m2
15:45 -12 °C -12.2 °C 34428.8 hPa NW 10.3 km/h 15.6 km/h 98 % 38.1 mm 63 W/m2
15:55 -11.9 °C -12.1 °C 34428.8 hPa NNW 2.6 km/h 15.6 km/h 98 % 33.02 mm 51 W/m2
18:35 -12.3 °C -12.5 °C 34476.3 hPa North 10.3 km/h 44.1 km/h 98 % 7.62 mm 9 W/m2
18:40 -12.4 °C -12.6 °C 34476.3 hPa NNE 12.9 km/h 44.1 km/h 98 % 0 mm 7 W/m2
18:50 -12.4 °C -12.6 °C 34486.4 hPa North 25.9 km/h 28.5 km/h 98 % 0 mm 7 W/m2
19:00 -12.6 °C -12.7 °C 34486.4 hPa North 20.8 km/h 36.2 km/h 98 % 0 mm 5 W/m2
19:05 -12.6 °C -12.8 °C 34486.4 hPa NNW 18.2 km/h 36.2 km/h 98 % 0 mm 5 W/m2
19:10 -12.6 °C -12.8 °C 34496.6 hPa NNW 20.8 km/h 33.6 km/h 98 % 0 mm 0 W/m2
19:20 -12.6 °C -12.8 °C 34496.6 hPa North 10.3 km/h 31.1 km/h 98 % 0 mm 0 W/m2
19:25 -12.6 °C -12.9 °C 34510.1 hPa NW 20.8 km/h 33.6 km/h 97 % 0 mm 0 W/m2
19:30 -12.6 °C -12.9 °C 34510.1 hPa NW 2.6 km/h 36.2 km/h 97 % 0 mm 0 W/m2
19:35 -12.7 °C -12.9 °C 34510.1 hPa North 12.9 km/h 36.2 km/h 97 % 0 mm 0 W/m2
19:40 -12.7 °C -12.9 °C 34510.1 hPa North 20.8 km/h 36.2 km/h 97 % 0 mm 0 W/m2
19:45 -12.7 °C -12.9 °C 34510.1 hPa NNW 15.6 km/h 33.6 km/h 97 % 0 mm 0 W/m2
19:50 -12.7 °C -13 °C 34510.1 hPa NNW 7.7 km/h 31.1 km/h 97 % 0 mm 0 W/m2
19:55 -12.7 °C -13 °C 34520.3 hPa NNW 5.1 km/h 28.5 km/h 97 % 0 mm 0 W/m2
20:00 -12.8 °C -13.1 °C 34520.3 hPa North 15.6 km/h 31.1 km/h 96 % 0 mm 0 W/m2
20:05 -12.8 °C -13.2 °C 34533.8 hPa NNW 20.8 km/h 31.1 km/h 96 % 0 mm 0 W/m2
20:15 -12.8 °C -13.2 °C 34533.8 hPa North 18.2 km/h 36.2 km/h 96 % 0 mm 0 W/m2
20:20 -12.8 °C -13.2 °C 34533.8 hPa NW 10.3 km/h 36.2 km/h 96 % 0 mm 0 W/m2
20:25 -12.9 °C -13.2 °C 34533.8 hPa NNW 18.2 km/h 33.6 km/h 96 % 0 mm 0 W/m2
20:30 -12.9 °C -13.2 °C 34533.8 hPa NNW 7.7 km/h 33.6 km/h 96 % 0 mm 0 W/m2
20:40 -12.9 °C -13.2 °C 34544 hPa WNW 10.3 km/h 36.2 km/h 96 % 0 mm 0 W/m2
20:45 -12.9 °C -13.2 °C 34544 hPa NW 23.3 km/h 31.1 km/h 96 % 0 mm 0 W/m2
20:50 -12.9 °C -13.3 °C 34544 hPa North 7.7 km/h 31.1 km/h 96 % 0 mm 0 W/m2
20:55 -12.9 °C -13.3 °C 34554.1 hPa North 15.6 km/h 31.1 km/h 96 % 0 mm 0 W/m2
21:00 -12.9 °C -13.3 °C 34554.1 hPa NNW 12.9 km/h 31.1 km/h 96 % 0 mm 0 W/m2
21:05 -12.9 °C -13.3 °C 34554.1 hPa NNW 10.3 km/h 36.2 km/h 96 % 0 mm 0 W/m2
21:15 -12.9 °C -13.2 °C 34567.7 hPa NNW 12.9 km/h 25.9 km/h 96 % 0 mm 0 W/m2
21:20 -12.9 °C -13.2 °C 34567.7 hPa North 15.6 km/h 25.9 km/h 96 % 0 mm 0 W/m2
21:25 -12.8 °C -13.3 °C 34567.7 hPa North 15.6 km/h 31.1 km/h 95 % 0 mm 0 W/m2
21:30 -12.8 °C -13.3 °C 34567.7 hPa NW 18.2 km/h 31.1 km/h 95 % 0 mm 0 W/m2
21:40 -12.9 °C -13.4 °C 34577.8 hPa NNW 12.9 km/h 36.2 km/h 94 % 0 mm 0 W/m2
21:45 -12.9 °C -13.4 °C 34577.8 hPa North 15.6 km/h 36.2 km/h 93 % 0 mm 0 W/m2
21:50 -12.9 °C -13.5 °C 34577.8 hPa North 7.7 km/h 33.6 km/h 93 % 0 mm 0 W/m2
21:55 -12.9 °C -13.5 °C 34577.8 hPa West 12.9 km/h 33.6 km/h 93 % 0 mm 0 W/m2
22:00 -13 °C -13.6 °C 34577.8 hPa NNW 15.6 km/h 33.6 km/h 93 % 0 mm 0 W/m2
22:05 -13 °C -13.6 °C 34577.8 hPa NNW 12.9 km/h 33.6 km/h 94 % 0 mm 0 W/m2
22:15 -13.1 °C -13.6 °C 34591.4 hPa NNW 7.7 km/h 31.1 km/h 94 % 0 mm 0 W/m2
22:20 -13.1 °C -13.6 °C 34591.4 hPa NNW 10.3 km/h 31.1 km/h 94 % 0 mm 0 W/m2
22:25 -13.1 °C -13.6 °C 34591.4 hPa NNW 12.9 km/h 28.5 km/h 94 % 0 mm 0 W/m2
22:30 -13.1 °C -13.6 °C 34591.4 hPa North 20.8 km/h 25.9 km/h 94 % 0 mm 0 W/m2
22:35 -13.2 °C -13.7 °C 34591.4 hPa NNW 5.1 km/h 25.9 km/h 94 % 0 mm 0 W/m2
22:40 -13.2 °C -13.7 °C 34591.4 hPa NW 7.7 km/h 31.1 km/h 94 % 0 mm 0 W/m2
22:45 -13.2 °C -13.7 °C 34601.5 hPa North 20.8 km/h 31.1 km/h 94 % 0 mm 0 W/m2
22:50 -13.2 °C -13.7 °C 34601.5 hPa NNW 25.9 km/h 25.9 km/h 94 % 0 mm 0 W/m2
22:55 -13.2 °C -13.7 °C 34601.5 hPa NW 12.9 km/h 33.6 km/h 94 % 0 mm 0 W/m2
23:00 -13.2 °C -13.7 °C 34601.5 hPa NNW 10.3 km/h 33.6 km/h 94 % 0 mm 0 W/m2
23:05 -13.2 °C -13.7 °C 34601.5 hPa NNW 12.9 km/h 33.6 km/h 94 % 0 mm 0 W/m2
23:10 -13.2 °C -13.7 °C 34601.5 hPa NNW 10.3 km/h 28.5 km/h 94 % 0 mm 0 W/m2
23:15 -13.2 °C -13.7 °C 34611.7 hPa WNW 23.3 km/h 31.1 km/h 94 % 0 mm 0 W/m2
23:20 -13.2 °C -13.7 °C 34611.7 hPa NW 12.9 km/h 31.1 km/h 94 % 0 mm 0 W/m2
23:25 -13.2 °C -13.7 °C 34611.7 hPa NNW 15.6 km/h 25.9 km/h 94 % 0 mm 0 W/m2
23:30 -13.3 °C -13.8 °C 34611.7 hPa NNW 15.6 km/h 25.9 km/h 94 % 0 mm 0 W/m2
23:35 -13.3 °C -13.8 °C 34611.7 hPa NW 10.3 km/h 38.8 km/h 94 % 0 mm 0 W/m2
23:40 -13.2 °C -13.7 °C 34611.7 hPa North 15.6 km/h 38.8 km/h 94 % 0 mm 0 W/m2
23:45 -13.3 °C -13.8 °C 34611.7 hPa NNW 23.3 km/h 33.6 km/h 94 % 0 mm 0 W/m2
23:50 -13.3 °C -13.8 °C 34611.7 hPa NNW 7.7 km/h 25.9 km/h 94 % 0 mm 0 W/m2
23:55 -13.4 °C -13.9 °C 34611.7 hPa NW 7.7 km/h 25.9 km/h 94 % 0 mm 0 W/m2
Avec l'autorisation de Weather Underground - 1.5 mb